createdAt,value
2023-10-21T00:07:50.661Z,7.50
2023-10-21T00:22:52.738Z,8.07
2023-10-21T00:37:54.942Z,7.80
2023-10-21T00:52:56.968Z,8.07
2023-10-21T01:08:02.059Z,8.55
2023-10-21T01:23:04.422Z,8.25
2023-10-21T01:38:06.484Z,7.93
2023-10-21T01:53:08.580Z,7.90
2023-10-21T02:08:10.645Z,7.40
2023-10-21T02:23:12.796Z,7.72
2023-10-21T02:38:14.954Z,7.35
2023-10-21T02:53:17.461Z,7.22
2023-10-21T03:08:20.188Z,6.75
2023-10-21T03:23:22.311Z,6.93
2023-10-21T03:38:24.515Z,6.75
2023-10-21T03:53:26.659Z,7.07
2023-10-21T04:08:29.398Z,6.75
2023-10-21T04:23:31.453Z,7.30
2023-10-21T04:38:33.474Z,6.85
2023-10-21T04:53:35.590Z,6.70
2023-10-21T05:08:37.715Z,6.70
2023-10-21T05:23:39.965Z,7.13
2023-10-21T05:38:42.177Z,6.30
2023-10-21T05:53:44.361Z,5.82
2023-10-21T06:08:46.495Z,5.97
2023-10-21T06:23:48.818Z,5.65
2023-10-21T06:38:51.079Z,5.57
2023-10-21T06:53:53.154Z,4.88
2023-10-21T07:08:55.242Z,5.15
2023-10-21T07:23:57.669Z,5.00
2023-10-21T07:38:59.724Z,5.20
2023-10-21T07:54:01.786Z,5.03
2023-10-21T08:14:17.351Z,4.35
2023-10-21T08:29:21.677Z,5.90
2023-10-21T08:44:23.642Z,5.70
2023-10-21T08:59:25.597Z,6.40
2023-10-21T09:14:27.559Z,5.90
2023-10-21T09:29:29.569Z,6.75
2023-10-21T09:44:31.906Z,5.60
2023-10-21T09:59:34.016Z,6.30
2023-10-21T10:14:36.172Z,6.60
2023-10-21T10:29:38.139Z,6.10
2023-10-21T10:44:40.178Z,6.60
2023-10-21T10:59:42.135Z,6.40
2023-10-21T11:14:44.290Z,6.88
2023-10-21T11:29:46.738Z,5.82
2023-10-21T11:44:56.763Z,5.80
2023-10-21T12:00:17.155Z,6.10
2023-10-21T12:15:37.871Z,5.78
2023-10-21T12:30:58.617Z,5.72
2023-10-21T12:46:13.087Z,5.97
2023-10-21T13:01:15.915Z,6.20
2023-10-21T13:16:18.771Z,6.35
2023-10-21T13:31:20.846Z,6.10
2023-10-21T13:46:22.956Z,6.40
2023-10-21T14:01:24.992Z,6.45
2023-10-21T14:16:28.102Z,5.70
2023-10-21T14:31:31.574Z,6.20
2023-10-21T14:46:33.779Z,5.80
2023-10-21T15:01:36.458Z,5.97
2023-10-21T15:16:38.694Z,5.70
2023-10-21T15:31:42.874Z,5.93
2023-10-21T15:46:45.352Z,6.15
2023-10-21T16:01:47.476Z,5.70
2023-10-21T16:16:49.562Z,5.97
2023-10-21T16:31:51.642Z,5.50
2023-10-21T16:46:53.909Z,5.57
2023-10-21T17:01:55.930Z,6.30
2023-10-21T17:16:57.962Z,6.60
2023-10-21T17:32:00.033Z,6.63
2023-10-21T17:47:02.089Z,8.90
2023-10-21T18:02:05.253Z,7.70
2023-10-21T18:17:07.223Z,8.10
2023-10-21T18:32:09.216Z,7.45
2023-10-21T18:47:11.168Z,7.32
2023-10-21T19:02:16.391Z,7.15
2023-10-21T19:17:18.474Z,6.70
2023-10-21T19:32:20.908Z,6.75
2023-10-21T19:47:24.500Z,6.75
2023-10-21T20:02:26.634Z,6.60
2023-10-21T20:17:28.761Z,7.05
2023-10-21T20:32:30.932Z,6.53
2023-10-21T20:47:32.969Z,7.07
2023-10-21T21:02:35.017Z,6.63
2023-10-21T21:17:37.128Z,6.05
2023-10-21T21:32:39.447Z,6.30
2023-10-21T21:47:41.566Z,6.38
2023-10-21T22:02:43.929Z,6.43
2023-10-21T22:17:46.362Z,6.07
2023-10-21T22:32:48.547Z,6.05
2023-10-21T22:47:50.582Z,5.90
2023-10-21T23:02:52.972Z,5.75
2023-10-21T23:17:55.803Z,5.70
2023-10-21T23:32:58.425Z,5.60
2023-10-21T23:48:00.591Z,5.65
